Latest METARs, TAFs and NOTAMs for LFPB


---------------------------------------------------------------------------
	(OBSERVATIONS)
LFPB 211700Z AUTO 23017KT CAVOK 15/07 Q1013 TEMPO SCT025TCU BECMG
    23015G25KT=
LFPB 211630Z AUTO 23016KT 9999 FEW041 15/07 Q1013 TEMPO SCT025TCU
    BECMG 23015G25KT=
LFPB 211600Z AUTO 23016KT CAVOK 15/07 Q1013 TEMPO 3000 SHRA BECMG
    23015G25KT SCT025TCU=
LFPB 211530Z AUTO 23014KT 190V260 CAVOK 15/08 Q1013 TEMPO 3000
    SHRA BECMG 23015G25KT SCT025TCU=
LFPB 211500Z AUTO 23014KT 9999 FEW049/// SCT072/// OVC140///
    ///CB 16/08 Q1013 TEMPO 22020G35KT 3000 SHRA=
LFPB 211430Z AUTO 24015KT 210V270 9999 FEW049/// BKN056/// BKN068///
    ///CB 17/07 Q1013 TEMPO 22020G35KT 3000 SHRA=
---------------------------------------------------------------------------
	(FC)
Sorry, FC For LFPB Not Found
---------------------------------------------------------------------------
	(TERMINAL AREA FORECAST)
LFPB 211700Z 2118/2218 23015G25KT CAVOK BECMG 2210/2212 SCT012TCU
    =
---------------------------------------------------------------------------
	(NOTAMS)


LFPB A1570/17 RNAV PROCEDURE GNSS RWY 27 NOT AVBL. 11 APR 15:29
    2017 UNTIL 31 DEC 23:59 2017. CREATED: 11 APR 15:29 2017

LFPB A3872/17 TACAN PART OF VORTAC CRL CH29X WITHDRAWN. 15 SEP
    06:00 2017 UNTIL 14 DEC 23:59 2017. CREATED: 06 SEP 16:15
    2017

LFPB A4030/17 TWY W15 CLOSED. 18 SEP 14:26 2017 UNTIL 31 OCT
    22:00 2017. CREATED: 18 SEP 14:28 2017

LFPB A4031/17 ACFT STAND H1 CLOSED. 18 SEP 14:26 2017 UNTIL 31
    OCT 22:00 2017. CREATED: 18 SEP 14:30 2017

LFPB A4205/17 TWY W19 CLOSED. 28 SEP 09:44 2017 UNTIL 31 OCT
    22:00 2017. CREATED: 28 SEP 09:45 2017

LFPB A4206/17 PARKING AREA I CLOSED. 28 SEP 09:46 2017 UNTIL
    31 OCT 22:00 2017. CREATED: 28 SEP 09:46 2017

LFPB A4207/17 PARKING AREA J (EAST PART) CLOSED. 28 SEP 09:47
    2017 UNTIL 31 OCT 22:00 2017. CREATED: 28 SEP 09:47 2017

LFPB A4494/17 VORTAC CRL REPLACED BY VOR/DME CRL 109.200MHZ CH29X
    AIP AD 1.5-6 REFERS. 12 OCT 16:17 2017 UNTIL PERM. CREATED:
    12 OCT 16:17 2017

LFPB A4496/17 LOCALIZER RWY 25 U/S : DO NOT USE, POSSIBLE FALSE
    INDICATIONS. 13 OCT 07:28 2017 UNTIL 27 OCT 15:00 2017. CREATED:
    13 OCT 07:28 2017

LFPB A4603/17 VOR/DME CLM 112.900MHZ/CH76X U/S DUE TO MAINTENANCE
    - DO NOT USE - POSSIBLE FALSE INDICATIONS. 24 OCT 08:00 2017
    UNTIL 26 OCT 16:00 2017. CREATED: 19 OCT 14:35 2017

LFPB A4628/17 DUE TO OBSTACLE, OPERATING MINIMA MODIFIED : CAT
    A : 650(500) OCH 494 RVR 1800 CAT B : 670(510) OCH 506 RVR
    1900 CAT C : 670(520) OCH 514 RVR 1900 CAT D : 680(530) OCH
    525 RVR 2000 AD2 LFPB IAC RWY07 GNSS REFERS. 20 OCT 13:16
    2017 UNTIL 31 JAN 17:00 2018. CREATED: 20 OCT 13:16 2017

LFPB P1744/17 CRANE ERECTED - RDL090/0.8NM ARP LFPB: PSN: 485810N
    0022745E ELEV: 263FT DAY MARKED AND NIGHT LIGHTED. 20 OCT
    12:36 2017 UNTIL 31 JAN 17:00 2018. CREATED: 20 OCT 12:36
    2017

---------------------------------------------------------------------------